Time;durP1;ratioP1;P1;durP2;ratioP2;P2;SDS_P1;SDS_P2;PMS_P1;PMS_P2;Temp;Humidity;BMP_temperature;BMP_pressure;BME280_temperature;BME280_humidity;BME280_pressure;Samples;Min_cycle;Max_cycle;Signal;HPM_P1;HPM_P2
2023/01/11 00:00:11;;;;;;;3.15;2.47;;;6.50;99.90;;;;;;7404141;19;20309;-77
2023/01/11 00:02:41;;;;;;;3.90;2.53;;;6.40;99.90;;;;;;7408151;19;19925;-76
2023/01/11 00:05:13;;;;;;;3.58;2.40;;;7.70;99.90;;;;;;7404414;19;19913;-77
2023/01/11 00:07:42;;;;;;;2.55;2.00;;;6.40;99.90;;;;;;7409415;19;19922;-76
2023/01/11 00:10:12;;;;;;;3.00;2.28;;;6.60;99.90;;;;;;7404846;19;19925;-77
2023/01/11 00:12:41;;;;;;;2.75;2.10;;;6.40;99.90;;;;;;7408155;19;19978;-76
2023/01/11 00:15:12;;;;;;;6.07;2.90;;;6.50;99.90;;;;;;7406134;19;19922;-76
2023/01/11 00:17:41;;;;;;;3.40;2.50;;;6.60;99.90;;;;;;7405519;19;19926;-76
2023/01/11 00:20:13;;;;;;;6.55;2.25;;;6.80;99.90;;;;;;7409289;19;19945;-77
2023/01/11 00:22:42;;;;;;;3.67;2.45;;;6.70;99.90;;;;;;7404746;19;19915;-76
2023/01/11 00:25:11;;;;;;;3.55;2.40;;;7.00;99.90;;;;;;7404176;19;19918;-77
2023/01/11 00:27:40;;;;;;;2.80;2.17;;;7.00;99.90;;;;;;7405515;19;19971;-76
2023/01/11 00:30:10;;;;;;;2.30;2.03;;;6.70;99.90;;;;;;7405107;19;19915;-77
2023/01/11 00:32:39;;;;;;;2.90;1.92;;;6.80;99.90;;;;;;7402828;19;19952;-76
2023/01/11 00:35:09;;;;;;;3.03;2.72;;;7.30;99.90;;;;;;7404683;19;20284;-76
2023/01/11 00:37:41;;;;;;;2.85;2.05;;;6.70;99.90;;;;;;7404494;19;19931;-77
2023/01/11 00:40:11;;;;;;;2.65;2.22;;;7.20;99.90;;;;;;7404755;19;20517;-78
2023/01/11 00:48:04;;;;;;;3.95;1.98;;;6.90;99.90;;;;;;7403645;19;19918;-76
2023/01/11 00:50:38;;;;;;;2.72;2.05;;;7.00;99.90;;;;;;7402017;19;19919;-76
2023/01/11 00:53:11;;;;;;;3.13;2.20;;;6.90;99.90;;;;;;7403759;19;19911;-76
2023/01/11 00:55:40;;;;;;;2.92;1.92;;;7.00;99.90;;;;;;7403737;19;19918;-78
2023/01/11 00:58:08;;;;;;;2.33;1.88;;;7.20;99.90;;;;;;7401883;19;19919;-77
2023/01/11 01:00:38;;;;;;;2.92;2.17;;;7.00;99.90;;;;;;7403229;19;19922;-77
2023/01/11 01:03:07;;;;;;;2.95;1.88;;;7.00;99.90;;;;;;7404047;19;20370;-76
2023/01/11 01:05:39;;;;;;;2.10;1.65;;;7.10;99.90;;;;;;7403371;19;19929;-76
2023/01/11 01:08:11;;;;;;;3.28;1.88;;;7.10;99.90;;;;;;7402787;19;20254;-77
2023/01/11 01:10:40;;;;;;;3.83;2.13;;;7.10;99.90;;;;;;7403510;19;19930;-77
2023/01/11 01:15:59;;;;;;;2.13;1.60;;;7.20;99.90;;;;;;7403494;19;19915;-77
2023/01/11 01:18:28;;;;;;;2.38;1.63;;;7.20;99.90;;;;;;7405120;19;19940;-77
2023/01/11 01:20:57;;;;;;;3.20;1.80;;;7.30;99.90;;;;;;7405526;19;19918;-76
2023/01/11 01:23:28;;;;;;;2.22;1.77;;;7.30;99.90;;;;;;7403351;19;19913;-77
2023/01/11 01:25:57;;;;;;;3.10;1.63;;;7.40;99.90;;;;;;7404674;19;19923;-77
2023/01/11 01:28:26;;;;;;;2.17;1.52;;;7.40;99.90;;;;;;7401641;19;19986;-76
2023/01/11 01:30:55;;;;;;;2.55;2.05;;;7.30;99.90;;;;;;7402736;19;19918;-77
2023/01/11 01:33:25;;;;;;;2.10;1.80;;;7.40;99.90;;;;;;7403151;19;20297;-76
2023/01/11 01:35:54;;;;;;;2.13;1.67;;;7.40;99.90;;;;;;7405340;19;19919;-76
2023/01/11 01:38:23;;;;;;;2.78;1.90;;;7.40;99.90;;;;;;7402290;19;19918;-76
2023/01/11 01:40:55;;;;;;;3.15;1.63;;;7.40;99.90;;;;;;7404513;19;19926;-76
2023/01/11 01:43:45;;;;;;;2.30;1.65;;;7.40;99.90;;;;;;7402776;19;20015;-76
2023/01/11 01:46:14;;;;;;;2.20;1.73;;;7.40;99.90;;;;;;7402437;19;19931;-76
2023/01/11 01:48:46;;;;;;;2.10;1.90;;;7.50;99.90;;;;;;7402466;19;20260;-76
2023/01/11 01:51:20;;;;;;;2.50;1.60;;;7.80;99.90;;;;;;7402597;19;19931;-77
2023/01/11 01:53:52;;;;;;;4.15;1.70;;;7.50;99.90;;;;;;7406688;19;19918;-76
2023/01/11 01:56:27;;;;;;;3.33;1.85;;;7.50;99.90;;;;;;7405149;19;20340;-76
2023/01/11 01:59:01;;;;;;;2.60;1.75;;;7.50;99.90;;;;;;7401358;19;19967;-76
2023/01/11 02:04:18;;;;;;;2.22;1.42;;;8.30;99.90;;;;;;7404537;19;20303;-75
2023/01/11 02:06:47;;;;;;;3.25;1.58;;;7.60;99.90;;;;;;7402181;19;20351;-76
2023/01/11 02:09:27;;;;;;;2.10;1.70;;;7.60;99.90;;;;;;7401487;19;19915;-77
2023/01/11 02:12:00;;;;;;;3.25;1.85;;;7.60;99.90;;;;;;7402533;19;19915;-76
2023/01/11 02:14:32;;;;;;;3.78;1.75;;;7.60;99.90;;;;;;7402269;19;20015;-75
2023/01/11 02:17:01;;;;;;;2.53;1.85;;;7.70;99.90;;;;;;7404479;19;19930;-76
2023/01/11 02:19:45;;;;;;;2.45;1.45;;;7.70;99.90;;;;;;7400539;19;20400;-76
2023/01/11 02:22:26;;;;;;;2.25;1.70;;;7.80;99.90;;;;;;7403351;19;19922;-76
2023/01/11 02:25:39;;;;;;;3.15;1.73;;;7.70;99.90;;;;;;7402021;19;19918;-76
2023/01/11 02:28:17;;;;;;;2.70;1.65;;;7.70;99.90;;;;;;7402553;19;19938;-76
2023/01/11 02:30:52;;;;;;;3.80;1.60;;;7.70;99.90;;;;;;7400460;19;19938;-75
2023/01/11 02:33:30;;;;;;;2.35;1.50;;;7.70;99.90;;;;;;7401142;19;20338;-76
2023/01/11 02:36:09;;;;;;;3.33;1.70;;;7.80;99.90;;;;;;7402766;19;19992;-76
2023/01/11 02:38:43;;;;;;;2.92;1.70;;;7.80;99.90;;;;;;7399991;19;19925;-76
2023/01/11 02:41:22;;;;;;;3.83;1.65;;;7.80;99.90;;;;;;7401087;19;19915;-76
2023/01/11 02:46:47;;;;;;;2.90;1.77;;;7.90;99.90;;;;;;7403806;19;19926;-76
2023/01/11 02:49:28;;;;;;;1.80;1.60;;;7.80;99.90;;;;;;7406645;19;19922;-76
2023/01/11 02:52:02;;;;;;;2.92;1.52;;;7.90;99.90;;;;;;7410881;19;19931;-76
2023/01/11 02:54:33;;;;;;;2.63;1.52;;;7.80;99.90;;;;;;7407075;19;19919;-75
2023/01/11 02:57:03;;;;;;;;;;;7.80;99.90;;;;;;7409692;19;20353;-75
2023/01/11 02:59:37;;;;;;;5.38;1.42;;;7.90;99.90;;;;;;7405516;19;20286;-76
2023/01/11 03:02:06;;;;;;;2.40;1.13;;;7.90;99.90;;;;;;7409955;19;19974;-76
2023/01/11 03:04:38;;;;;;;1.80;1.48;;;8.00;99.90;;;;;;7407619;19;19925;-76
2023/01/11 03:07:21;;;;;;;2.45;1.50;;;7.90;99.90;;;;;;7407138;19;19915;-76
2023/01/11 03:10:03;;;;;;;2.40;1.40;;;7.90;99.90;;;;;;7407123;19;19922;-76
2023/01/11 03:12:51;;;;;;;2.58;1.48;;;7.90;99.90;;;;;;7407247;19;19910;-76
2023/01/11 03:15:54;;;;;;;1.95;1.52;;;8.00;99.90;;;;;;7406762;19;19914;-76
2023/01/11 03:18:37;;;;;;;2.30;1.60;;;8.10;99.90;;;;;;7409701;19;19923;-75
2023/01/11 03:21:18;;;;;;;1.50;1.30;;;8.00;99.90;;;;;;7407241;19;19982;-76
2023/01/11 03:23:58;;;;;;;2.13;1.60;;;7.90;99.90;;;;;;7408628;19;20337;-76
2023/01/11 03:26:36;;;;;;;1.60;1.50;;;8.00;99.90;;;;;;7406231;19;19933;-76
2023/01/11 03:29:14;;;;;;;2.42;1.55;;;8.20;99.90;;;;;;7404430;19;19996;-76
2023/01/11 03:31:53;;;;;;;2.60;1.40;;;8.20;99.90;;;;;;7407818;19;19925;-76
2023/01/11 03:34:34;;;;;;;2.08;1.40;;;8.20;99.90;;;;;;7406478;19;19925;-76
2023/01/11 03:37:10;;;;;;;3.28;1.55;;;8.20;99.90;;;;;;7405985;19;19935;-75
2023/01/11 03:39:45;;;;;;;2.35;1.25;;;8.20;99.90;;;;;;7405896;19;20345;-75
2023/01/11 03:42:18;;;;;;;1.30;1.08;;;8.40;99.90;;;;;;7406335;19;20253;-75
2023/01/11 03:44:51;;;;;;;3.35;1.20;;;8.10;99.90;;;;;;7406357;19;19914;-75
2023/01/11 03:47:26;;;;;;;1.60;1.20;;;8.30;99.90;;;;;;7406384;19;19981;-75
2023/01/11 03:50:00;;;;;;;2.72;1.25;;;8.20;99.90;;;;;;7408316;19;20079;-76
2023/01/11 03:52:33;;;;;;;1.60;1.10;;;8.20;99.90;;;;;;7408800;19;19952;-77
2023/01/11 03:55:04;;;;;;;1.45;1.00;;;8.20;99.90;;;;;;7405348;19;20256;-76
2023/01/11 03:57:36;;;;;;;1.90;0.93;;;8.40;99.90;;;;;;7403376;19;19933;-76
2023/01/11 04:00:07;;;;;;;1.25;0.90;;;8.30;99.90;;;;;;7403471;19;19974;-75
2023/01/11 04:02:41;;;;;;;1.42;0.90;;;8.30;99.90;;;;;;7405309;19;19921;-76
2023/01/11 04:05:12;;;;;;;1.00;0.90;;;8.20;99.90;;;;;;7405609;19;19922;-76
2023/01/11 04:07:41;;;;;;;2.13;0.70;;;8.40;99.90;;;;;;7406728;19;19943;-76
2023/01/11 04:10:11;;;;;;;1.30;0.80;;;8.30;99.90;;;;;;7405087;19;20268;-76
2023/01/11 04:12:40;;;;;;;1.20;0.65;;;8.30;99.90;;;;;;7403944;19;19983;-76
2023/01/11 04:15:12;;;;;;;1.02;0.68;;;8.40;99.90;;;;;;7407754;19;19919;-76
2023/01/11 04:17:43;;;;;;;2.33;0.50;;;8.40;99.90;;;;;;7408470;19;20321;-76
2023/01/11 04:20:14;;;;;;;0.88;0.60;;;8.50;99.90;;;;;;7403847;19;19910;-75
2023/01/11 04:22:42;;;;;;;1.33;0.73;;;8.20;99.90;;;;;;7406617;19;19929;-75
2023/01/11 04:25:12;;;;;;;1.52;0.77;;;8.40;99.90;;;;;;7405763;19;19915;-76
2023/01/11 04:27:42;;;;;;;0.80;0.60;;;8.50;99.90;;;;;;7404267;19;19918;-76
2023/01/11 04:30:12;;;;;;;1.85;0.70;;;8.40;99.90;;;;;;7405052;19;20368;-77
2023/01/11 04:32:44;;;;;;;0.68;0.55;;;8.40;99.90;;;;;;7404394;19;19986;-77
2023/01/11 04:35:13;;;;;;;0.80;0.60;;;8.40;99.90;;;;;;7408571;19;19919;-77
2023/01/11 04:37:41;;;;;;;1.13;0.50;;;8.50;99.90;;;;;;7406057;19;19922;-77
2023/01/11 04:40:12;;;;;;;0.63;0.50;;;8.40;99.90;;;;;;7406723;19;19936;-76
2023/01/11 04:42:39;;;;;;;0.93;0.60;;;8.50;99.90;;;;;;7409272;19;19947;-76
2023/01/11 04:45:08;;;;;;;;;;;8.50;99.90;;;;;;7408209;19;19982;-76
2023/01/11 04:47:37;;;;;;;0.88;0.60;;;8.60;99.90;;;;;;7405966;19;19922;-77
2023/01/11 04:50:10;;;;;;;0.40;0.40;;;8.60;99.90;;;;;;7405825;19;19933;-77
2023/01/11 04:52:40;;;;;;;4.28;0.50;;;8.60;99.90;;;;;;7407141;19;20355;-76
2023/01/11 04:55:10;;;;;;;0.68;0.50;;;8.50;99.90;;;;;;7404025;19;20344;-76
2023/01/11 04:57:39;;;;;;;1.33;0.40;;;8.60;99.90;;;;;;7404062;19;20340;-76
2023/01/11 05:00:10;;;;;;;0.80;0.40;;;8.60;99.90;;;;;;7404612;19;19919;-76
2023/01/11 05:02:39;;;;;;;1.33;0.50;;;8.80;99.90;;;;;;7404503;19;19922;-76
2023/01/11 05:05:12;;;;;;;1.15;0.50;;;8.60;99.90;;;;;;7403759;19;20341;-75
2023/01/11 05:07:42;;;;;;;0.52;0.50;;;8.70;99.90;;;;;;7406742;19;19922;-75
2023/01/11 05:10:12;;;;;;;0.80;0.50;;;8.70;99.90;;;;;;7402524;19;19914;-76
2023/01/11 05:12:41;;;;;;;1.58;0.40;;;8.60;99.90;;;;;;7405289;19;19939;-76
2023/01/11 05:15:11;;;;;;;0.57;0.40;;;8.70;99.90;;;;;;7404617;19;19996;-76
2023/01/11 05:17:40;;;;;;;1.08;0.63;;;8.60;99.90;;;;;;7406747;19;20333;-77
2023/01/11 05:20:13;;;;;;;2.50;0.70;;;8.80;99.90;;;;;;7403028;19;19994;-76
2023/01/11 05:22:42;;;;;;;2.22;0.70;;;8.70;99.90;;;;;;7403599;19;20240;-76
2023/01/11 05:25:11;;;;;;;2.15;0.65;;;8.70;99.90;;;;;;7402592;19;19941;-76
2023/01/11 05:28:00;;;;;;;2.60;0.65;;;8.70;99.90;;;;;;7403553;19;19918;-75
2023/01/11 05:30:29;;;;;;;4.53;0.90;;;8.70;99.90;;;;;;7402821;19;19970;-76
2023/01/11 05:32:58;;;;;;;1.67;0.38;;;8.60;99.90;;;;;;7404349;19;20310;-76
2023/01/11 05:35:30;;;;;;;1.23;0.50;;;8.60;99.90;;;;;;7402871;19;19928;-75
2023/01/11 05:37:59;;;;;;;5.07;0.80;;;8.40;99.90;;;;;;7402862;19;19914;-75
2023/01/11 05:40:28;;;;;;;4.03;0.52;;;8.40;99.90;;;;;;7404905;19;20343;-76
2023/01/11 05:42:56;;;;;;;1.80;0.63;;;8.20;99.90;;;;;;7402187;19;19925;-76
2023/01/11 05:45:28;;;;;;;1.80;0.70;;;8.30;99.90;;;;;;7402513;19;20370;-76
2023/01/11 05:47:57;;;;;;;5.13;0.55;;;8.20;99.90;;;;;;7405528;19;19946;-76
2023/01/11 05:50:26;;;;;;;4.05;0.70;;;8.10;99.90;;;;;;7403991;19;19967;-77
2023/01/11 05:52:58;;;;;;;2.17;1.02;;;8.20;99.90;;;;;;7402687;19;20034;-77
2023/01/11 05:55:27;;;;;;;0.80;0.50;;;8.00;99.90;;;;;;7402595;19;19925;-76
2023/01/11 05:57:56;;;;;;;5.40;0.80;;;8.20;99.90;;;;;;7402740;19;19923;-77
2023/01/11 06:00:26;;;;;;;7.03;1.02;;;8.10;99.90;;;;;;7401161;19;19917;-76
2023/01/11 06:02:55;;;;;;;3.95;0.80;;;9.10;99.90;;;;;;7405220;19;19986;-76
2023/01/11 06:05:24;;;;;;;4.07;1.00;;;8.10;99.90;;;;;;7402693;19;20015;-76
2023/01/11 06:07:58;;;;;;;3.30;1.00;;;8.10;99.90;;;;;;7403409;19;20274;-76
2023/01/11 06:10:27;;;;;;;5.82;1.02;;;8.20;99.90;;;;;;7402110;19;19918;-77
2023/01/11 06:13:25;;;;;;;6.57;1.10;;;8.10;99.90;;;;;;7402089;19;19936;-76
2023/01/11 06:15:45;;;;;;;3.50;0.98;;;8.30;99.90;;;;;;7401493;19;19949;-76
2023/01/11 06:18:14;;;;;;;5.80;1.00;;;8.60;99.90;;;;;;7401916;19;19928;-77
2023/01/11 06:20:43;;;;;;;3.92;0.88;;;8.20;99.90;;;;;;7402373;19;19918;-76
2023/01/11 06:23:15;;;;;;;7.30;2.38;;;8.30;99.90;;;;;;7408691;19;19995;-77
2023/01/11 06:25:44;;;;;;;3.72;0.82;;;8.40;99.90;;;;;;7411623;19;19915;-76
2023/01/11 06:28:13;;;;;;;6.22;0.82;;;8.30;99.90;;;;;;7411564;19;19926;-77
2023/01/11 06:30:43;;;;;;;2.72;0.98;;;8.40;99.90;;;;;;7410420;19;20317;-76
2023/01/11 06:33:12;;;;;;;6.55;1.55;;;8.40;99.90;;;;;;7405861;19;20304;-76
2023/01/11 06:35:43;;;;;;;4.32;1.40;;;8.40;99.90;;;;;;7407994;19;20373;-77
2023/01/11 06:38:16;;;;;;;5.03;1.17;;;8.80;99.90;;;;;;7407769;19;19914;-77
2023/01/11 06:40:51;;;;;;;5.97;1.60;;;8.30;99.90;;;;;;7409042;19;19925;-77
2023/01/11 06:43:21;;;;;;;13.63;1.55;;;8.40;99.90;;;;;;7407752;19;19918;-76
2023/01/11 06:45:50;;;;;;;9.93;1.38;;;8.50;99.90;;;;;;7411198;19;19922;-76
2023/01/11 06:48:20;;;;;;;10.77;2.00;;;8.40;99.90;;;;;;7408147;19;19918;-76
2023/01/11 06:50:50;;;;;;;6.88;1.23;;;8.40;99.90;;;;;;7411119;19;20036;-77
2023/01/11 06:53:21;;;;;;;10.00;2.08;;;8.50;99.90;;;;;;7407802;19;20262;-77
2023/01/11 06:55:52;;;;;;;14.07;2.80;;;8.50;99.90;;;;;;7406807;19;19925;-76
2023/01/11 06:58:22;;;;;;;8.07;1.50;;;8.60;99.90;;;;;;7408779;19;19921;-77
2023/01/11 07:00:52;;;;;;;9.82;1.83;;;8.30;99.90;;;;;;7406180;19;20000;-77
2023/01/11 07:03:22;;;;;;;14.88;1.70;;;8.50;99.90;;;;;;7408391;19;19951;-77
2023/01/11 07:05:55;;;;;;;10.27;1.75;;;8.50;99.90;;;;;;7407283;19;19915;-78
2023/01/11 07:08:28;;;;;;;10.57;1.67;;;8.40;99.90;;;;;;7406898;19;20315;-78
2023/01/11 07:10:57;;;;;;;12.40;1.85;;;8.30;99.90;;;;;;7409753;19;20443;-76
2023/01/11 07:13:26;;;;;;;8.02;1.30;;;8.60;99.90;;;;;;7407032;19;19919;-73
2023/01/11 07:15:58;;;;;;;10.35;1.77;;;8.40;99.90;;;;;;7408276;19;20264;-75
2023/01/11 07:18:30;;;;;;;6.90;1.60;;;8.40;99.90;;;;;;7410248;19;19915;-77
2023/01/11 07:20:59;;;;;;;12.15;1.40;;;8.50;99.90;;;;;;7405043;19;19951;-77
2023/01/11 07:23:30;;;;;;;12.38;1.55;;;8.50;99.90;;;;;;7404734;19;20347;-77
2023/01/11 07:26:00;;;;;;;10.52;1.20;;;8.50;99.90;;;;;;7410209;19;19974;-76
2023/01/11 07:28:29;;;;;;;7.88;1.42;;;8.30;99.90;;;;;;7405545;19;19914;-77
2023/01/11 07:30:58;;;;;;;15.70;2.58;;;8.50;99.90;;;;;;7406756;19;19929;-77
2023/01/11 07:33:28;;;;;;;10.52;2.40;;;8.30;99.90;;;;;;7405035;19;19915;-78
2023/01/11 07:35:59;;;;;;;11.02;2.33;;;8.40;99.90;;;;;;7406118;19;19914;-78
2023/01/11 07:38:30;;;;;;;13.00;1.70;;;8.30;99.90;;;;;;7409218;19;19926;-78
2023/01/11 07:40:59;;;;;;;8.18;1.58;;;8.40;99.90;;;;;;7404502;19;20364;-78
2023/01/11 07:43:26;;;;;;;14.00;1.80;;;8.40;99.90;;;;;;7406300;19;20345;-79
2023/01/11 07:45:54;;;;;;;;;;;8.40;99.90;;;;;;7410095;19;19922;-75
2023/01/11 07:48:26;;;;;;;4.57;1.00;;;8.40;99.90;;;;;;7406593;19;19921;-79
2023/01/11 07:50:55;;;;;;;14.05;2.08;;;8.40;99.90;;;;;;7407371;19;19921;-79
2023/01/11 07:53:26;;;;;;;7.53;1.50;;;8.50;99.90;;;;;;7407610;19;19918;-78
2023/01/11 07:55:59;;;;;;;5.40;1.73;;;8.40;99.90;;;;;;7407325;19;19922;-78
2023/01/11 07:58:28;;;;;;;9.55;2.08;;;8.40;99.90;;;;;;7406177;19;19922;-76
2023/01/11 08:00:57;;;;;;;8.35;1.40;;;8.40;99.90;;;;;;7406432;19;19925;-77
2023/01/11 08:03:25;;;;;;;7.70;1.38;;;8.40;99.90;;;;;;7405421;19;20322;-78
2023/01/11 08:05:54;;;;;;;8.25;1.45;;;8.80;99.90;;;;;;7405212;19;19924;-77
2023/01/11 08:08:23;;;;;;;9.32;1.75;;;8.40;99.90;;;;;;7407186;19;19924;-78
2023/01/11 08:14:38;;;;;;;11.50;1.40;;;8.50;99.90;;;;;;7406150;19;19919;-77
2023/01/11 08:16:26;;;;;;;9.48;1.20;;;8.40;99.90;;;;;;7406595;19;19934;-77
2023/01/11 08:18:55;;;;;;;7.93;1.38;;;8.40;99.90;;;;;;7404565;19;19923;-78
2023/01/11 08:21:23;;;;;;;10.68;2.75;;;8.40;99.90;;;;;;7404757;19;19930;-78
2023/01/11 08:23:54;;;;;;;10.18;1.77;;;9.40;99.90;;;;;;7403542;19;19930;-79
2023/01/11 08:26:24;;;;;;;6.75;1.10;;;8.50;99.90;;;;;;7404437;19;19922;-77
2023/01/11 08:28:56;;;;;;;7.47;1.58;;;8.40;99.90;;;;;;7404127;19;20629;-80
2023/01/11 08:31:26;;;;;;;6.03;1.38;;;8.40;99.90;;;;;;7404458;19;19925;-78
2023/01/11 08:33:54;;;;;;;13.63;1.35;;;8.30;99.90;;;;;;7405871;19;19943;-77
2023/01/11 08:36:26;;;;;;;5.63;1.65;;;8.40;99.90;;;;;;7404653;19;20344;-77
2023/01/11 08:38:56;;;;;;;9.13;1.83;;;8.40;99.90;;;;;;7404544;19;19922;-77
2023/01/11 08:41:26;;;;;;;11.45;2.13;;;8.40;99.90;;;;;;7403405;19;19918;-78
2023/01/11 08:43:58;;;;;;;9.88;1.75;;;8.40;99.90;;;;;;7405147;19;19923;-77
2023/01/11 08:46:26;;;;;;;9.40;1.95;;;8.40;99.90;;;;;;7408393;19;19922;-78
2023/01/11 08:48:55;;;;;;;9.98;1.30;;;8.50;99.90;;;;;;7406862;19;19932;-78
2023/01/11 08:51:24;;;;;;;12.98;1.67;;;8.40;99.90;;;;;;7406550;19;19921;-78
2023/01/11 08:53:54;;;;;;;6.68;1.17;;;8.30;99.90;;;;;;7407642;19;20384;-78
2023/01/11 08:56:23;;;;;;;11.43;2.33;;;8.30;99.90;;;;;;7404346;19;19982;-78
2023/01/11 08:58:52;;;;;;;8.60;1.67;;;8.50;99.90;;;;;;7404284;19;20252;-78
2023/01/11 09:01:23;;;;;;;6.30;1.33;;;8.50;99.90;;;;;;7404211;19;19965;-77
2023/01/11 09:03:52;;;;;;;7.72;1.75;;;8.30;99.90;;;;;;7406117;19;20323;-78
2023/01/11 09:06:21;;;;;;;5.03;1.27;;;8.40;99.90;;;;;;7404207;19;19911;-78
2023/01/11 09:08:50;;;;;;;9.40;1.77;;;8.20;99.90;;;;;;7403587;19;19925;-77
2023/01/11 09:14:01;;;;;;;7.47;1.35;;;8.30;99.90;;;;;;7405158;19;19915;-78
2023/01/11 09:16:33;;;;;;;6.28;1.08;;;8.40;99.90;;;;;;7401966;19;19914;-79
2023/01/11 09:19:02;;;;;;;12.05;1.70;;;8.20;99.90;;;;;;7407170;19;19929;-78
2023/01/11 09:21:31;;;;;;;5.75;1.45;;;8.20;99.90;;;;;;7401647;19;19911;-78
2023/01/11 09:24:01;;;;;;;10.05;1.70;;;8.30;99.90;;;;;;7405944;19;20480;-78
2023/01/11 09:26:31;;;;;;;10.55;1.17;;;8.30;99.90;;;;;;7404270;19;19986;-77
2023/01/11 09:28:59;;;;;;;6.78;1.10;;;8.20;99.90;;;;;;7401683;19;19948;-78
2023/01/11 09:31:28;;;;;;;7.40;1.60;;;8.10;99.90;;;;;;7404565;19;20003;-78
2023/01/11 09:34:00;;;;;;;9.00;1.33;;;8.10;99.90;;;;;;7402738;19;19919;-78
2023/01/11 09:36:30;;;;;;;6.90;1.05;;;8.00;99.90;;;;;;7403483;19;19982;-78
2023/01/11 09:39:01;;;;;;;6.05;1.17;;;8.00;99.90;;;;;;7402583;19;19914;-78
2023/01/11 09:41:43;;;;;;;8.90;1.63;;;7.90;99.90;;;;;;7404793;19;20299;-78
2023/01/11 09:44:20;;;;;;;6.35;1.52;;;7.80;99.90;;;;;;7404959;19;19931;-78
2023/01/11 09:46:53;;;;;;;7.07;1.00;;;6.90;99.90;;;;;;7402456;19;19921;-78
2023/01/11 09:49:29;;;;;;;5.95;0.98;;;7.90;99.90;;;;;;7404707;19;19951;-78
2023/01/11 09:52:05;;;;;;;8.02;1.17;;;7.90;99.90;;;;;;7405197;19;19954;-78
2023/01/11 09:54:35;;;;;;;7.63;1.50;;;8.00;99.90;;;;;;7401372;19;19914;-78
2023/01/11 09:57:15;;;;;;;9.85;1.20;;;7.80;99.90;;;;;;7402226;19;19931;-77
2023/01/11 09:59:53;;;;;;;11.65;1.30;;;7.80;99.90;;;;;;7401836;19;19918;-78
2023/01/11 10:02:34;;;;;;;5.70;1.40;;;8.00;99.90;;;;;;7400654;19;20241;-77
2023/01/11 10:05:36;;;;;;;5.22;1.17;;;8.00;99.90;;;;;;7404069;19;19944;-77
2023/01/11 10:08:19;;;;;;;12.75;1.45;;;8.10;99.90;;;;;;7402119;19;19918;-78
2023/01/11 10:11:00;;;;;;;9.60;1.50;;;8.20;99.90;;;;;;7404040;19;19922;-77
2023/01/11 10:13:43;;;;;;;4.18;0.98;;;8.10;99.90;;;;;;7401529;19;19939;-77
2023/01/11 10:16:27;;;;;;;9.35;0.95;;;8.30;99.90;;;;;;7400893;19;19923;-79
2023/01/11 10:19:05;;;;;;;;;;;8.20;99.90;;;;;;7404584;19;19955;-77
2023/01/11 10:21:44;;;;;;;11.55;1.77;;;10.00;99.90;;;;;;7400635;19;19941;-77
2023/01/11 10:24:20;;;;;;;5.93;1.00;;;8.30;99.90;;;;;;7403096;19;19931;-78
2023/01/11 10:26:51;;;;;;;6.10;1.38;;;8.20;99.90;;;;;;7403664;19;19935;-77
2023/01/11 10:35:28;;;;;;;6.68;1.27;;;8.40;99.90;;;;;;7401102;19;19911;-77
2023/01/11 10:38:21;;;;;;;5.10;1.05;;;8.40;99.90;;;;;;7401103;19;19921;-78
2023/01/11 10:41:14;;;;;;;7.68;1.55;;;8.50;99.90;;;;;;7402058;19;20365;-78
2023/01/11 10:43:46;;;;;;;8.32;1.75;;;8.40;99.90;;;;;;7399251;19;20019;-78
2023/01/11 10:46:19;;;;;;;9.93;1.48;;;8.40;99.90;;;;;;7403498;19;19911;-77
2023/01/11 10:48:48;;;;;;;8.43;1.40;;;8.50;99.90;;;;;;7403436;19;19922;-76
2023/01/11 10:51:26;;;;;;;8.00;1.25;;;8.60;99.90;;;;;;7400212;19;20643;-78
2023/01/11 10:54:02;;;;;;;;;;;8.50;99.90;;;;;;7404072;19;19994;-78
2023/01/11 10:56:48;;;;;;;10.70;1.25;;;8.60;99.90;;;;;;7398096;19;19925;-76
2023/01/11 10:59:36;;;;;;;7.10;1.20;;;8.60;99.90;;;;;;7380891;19;20267;-75
2023/01/11 11:02:17;;;;;;;9.52;1.60;;;8.40;99.90;;;;;;7383560;19;20016;-73
2023/01/11 11:04:58;;;;;;;7.78;1.10;;;8.70;99.90;;;;;;7399415;19;19922;-73
2023/01/11 11:07:33;;;;;;;7.47;1.30;;;8.70;99.90;;;;;;7400343;19;20255;-74
2023/01/11 11:10:20;;;;;;;7.90;1.40;;;8.70;99.90;;;;;;7407361;19;19930;-73
2023/01/11 11:12:56;;;;;;;5.18;0.93;;;8.90;99.90;;;;;;7408228;19;19923;-73
2023/01/11 11:15:33;;;;;;;4.03;1.20;;;8.80;99.90;;;;;;7406123;19;19922;-76
2023/01/11 11:18:02;;;;;;;7.72;1.02;;;8.90;99.90;;;;;;7407087;19;19926;-75
2023/01/11 11:20:33;;;;;;;5.43;1.13;;;8.90;99.90;;;;;;7408290;19;19914;-77
2023/01/11 11:23:02;;;;;;;5.80;1.58;;;9.00;99.90;;;;;;7403509;19;19985;-74
2023/01/11 11:25:37;;;;;;;5.03;1.20;;;8.90;99.90;;;;;;7407068;19;19923;-80
2023/01/11 11:28:08;;;;;;;9.18;1.20;;;8.90;99.90;;;;;;7408556;19;19926;-77
2023/01/11 11:30:40;;;;;;;3.45;1.00;;;9.00;99.90;;;;;;7409781;19;19978;-79
2023/01/11 11:33:17;;;;;;;4.50;0.88;;;8.90;99.90;;;;;;7411189;19;20349;-76
2023/01/11 11:35:55;;;;;;;9.55;1.25;;;8.70;99.90;;;;;;7407944;19;20313;-76
2023/01/11 11:38:28;;;;;;;4.93;1.17;;;8.80;99.90;;;;;;7409347;19;19933;-78
2023/01/11 11:41:08;;;;;;;6.95;0.93;;;8.90;99.90;;;;;;7407026;19;19922;-78
2023/01/11 11:43:37;;;;;;;9.02;2.05;;;8.90;99.90;;;;;;7405975;19;19926;-77
2023/01/11 11:46:27;;;;;;;9.82;1.23;;;8.90;99.90;;;;;;7406289;19;19919;-86
2023/01/11 11:49:12;;;;;;;9.18;1.33;;;8.80;99.90;;;;;;7407970;19;19914;-76
2023/01/11 11:51:42;;;;;;;10.20;1.60;;;8.90;99.90;;;;;;7406821;19;20353;-76
2023/01/11 11:54:21;;;;;;;8.75;1.48;;;8.80;99.90;;;;;;7405564;19;19926;-73
2023/01/11 11:56:53;;;;;;;7.53;1.15;;;8.80;99.90;;;;;;7404932;19;19985;-73
2023/01/11 11:59:24;;;;;;;7.63;1.25;;;8.90;99.90;;;;;;7406815;19;20729;-79
2023/01/11 12:02:00;;;;;;;6.10;1.60;;;8.90;99.90;;;;;;7406775;19;19929;-84
2023/01/11 12:04:39;;;;;;;11.50;1.60;;;8.80;99.90;;;;;;7406504;19;19927;-78
2023/01/11 12:07:14;;;;;;;7.63;1.90;;;8.90;99.90;;;;;;7406045;19;19926;-78
2023/01/11 12:09:48;;;;;;;4.35;1.40;;;8.80;99.90;;;;;;7405692;19;19919;-78
2023/01/11 12:12:23;;;;;;;5.43;0.95;;;8.90;99.90;;;;;;7405987;19;19925;-77
2023/01/11 12:15:09;;;;;;;8.77;1.98;;;9.00;99.90;;;;;;7405268;19;19918;-76
2023/01/11 12:17:39;;;;;;;7.82;1.23;;;9.10;99.90;;;;;;7403961;19;19922;-77
2023/01/11 12:20:30;;;;;;;7.00;1.48;;;9.30;99.90;;;;;;7402347;19;19925;-77
2023/01/11 12:23:16;;;;;;;10.95;2.00;;;9.20;99.90;;;;;;7399013;19;20261;-76
2023/01/11 12:26:00;;;;;;;9.75;1.58;;;9.40;99.90;;;;;;7404784;19;19922;-76
2023/01/11 12:28:57;;;;;;;9.55;1.70;;;9.40;99.90;;;;;;7400936;19;19982;-80
2023/01/11 12:31:32;;;;;;;6.68;1.50;;;9.40;99.90;;;;;;7404209;19;19923;-80
2023/01/11 12:34:09;;;;;;;4.85;1.02;;;9.40;99.90;;;;;;7399602;19;19931;-80
2023/01/11 12:36:47;;;;;;;14.77;1.58;;;9.70;99.90;;;;;;7404360;19;19922;-80
2023/01/11 12:39:23;;;;;;;10.15;1.27;;;9.80;99.90;;;;;;7403647;19;19917;-80
2023/01/11 12:42:23;;;;;;;10.55;1.58;;;10.00;99.90;;;;;;7403161;19;20425;-81
2023/01/11 12:45:06;;;;;;;9.95;1.60;;;9.70;99.90;;;;;;7403766;19;19932;-80
2023/01/11 12:47:54;;;;;;;9.30;1.55;;;9.30;99.90;;;;;;7403362;19;20007;-80
2023/01/11 12:50:25;;;;;;;12.40;1.98;;;9.20;99.90;;;;;;7403552;19;19970;-80
2023/01/11 12:53:26;;;;;;;7.32;1.48;;;9.40;99.90;;;;;;7405359;19;20265;-79
2023/01/11 12:56:12;;;;;;;7.03;1.75;;;9.50;99.90;;;;;;7402497;19;20370;-80
2023/01/11 12:58:47;;;;;;;6.82;1.30;;;9.70;99.90;;;;;;7402846;19;19915;-80
2023/01/11 13:01:35;;;;;;;12.95;1.85;;;9.80;99.90;;;;;;7401241;19;19948;-79
2023/01/11 13:04:38;;;;;;;10.80;1.50;;;9.70;99.90;;;;;;7405601;19;19933;-79
2023/01/11 13:07:17;;;;;;;5.82;1.50;;;9.50;99.90;;;;;;7405312;19;19935;-79
2023/01/11 13:09:58;;;;;;;5.70;1.20;;;9.30;99.90;;;;;;7400662;19;19937;-80
2023/01/11 13:12:34;;;;;;;9.30;1.15;;;9.20;99.90;;;;;;7401887;19;19923;-79
2023/01/11 13:15:16;;;;;;;10.52;1.50;;;9.00;99.90;;;;;;7405701;19;19919;-79
2023/01/11 13:17:57;;;;;;;11.25;2.38;;;8.80;99.90;;;;;;7402945;19;19941;-80
2023/01/11 13:20:35;;;;;;;11.25;2.15;;;8.90;99.90;;;;;;7402450;19;19929;-80
2023/01/11 13:23:07;;;;;;;11.32;1.73;;;8.70;99.90;;;;;;7400579;19;19918;-79
2023/01/11 13:25:38;;;;;;;;;;;8.80;99.90;;;;;;7405193;19;20341;-79
2023/01/11 13:28:19;;;;;;;9.93;1.60;;;8.80;99.90;;;;;;7402710;19;19918;-80
2023/01/11 13:30:50;;;;;;;11.88;1.52;;;8.70;99.90;;;;;;7400607;19;19914;-80
2023/01/11 13:33:25;;;;;;;12.13;2.10;;;8.70;99.90;;;;;;7403894;19;19918;-80
2023/01/11 13:35:58;;;;;;;8.88;1.80;;;8.70;99.90;;;;;;7403860;19;20235;-80
2023/01/11 13:38:35;;;;;;;15.25;1.67;;;8.70;99.90;;;;;;7402411;19;19926;-79
2023/01/11 13:41:13;;;;;;;13.23;2.20;;;8.70;99.90;;;;;;7404325;19;19910;-79
2023/01/11 13:43:46;;;;;;;13.02;2.00;;;8.70;99.90;;;;;;7402046;19;19938;-80
2023/01/11 13:46:20;;;;;;;13.20;1.85;;;8.60;99.90;;;;;;7401646;19;19925;-81
2023/01/11 13:48:57;;;;;;;9.40;0.93;;;8.70;99.90;;;;;;7403074;19;20082;-80
2023/01/11 13:51:33;;;;;;;13.05;1.75;;;8.60;99.90;;;;;;7400025;19;19926;-80
2023/01/11 13:54:06;;;;;;;8.30;1.55;;;8.60;99.90;;;;;;7401756;19;19921;-81
2023/01/11 13:56:41;;;;;;;10.52;2.03;;;8.60;99.90;;;;;;7398792;19;19926;-80